^^
Your Local Weather - Clay, NY Station Historical Data
Daily Summary for February 11, 2017 Units:  English    Metric   Both
« Previous Day
Next Day »
Daily Weekly Monthly Yearly Custom
  High: Low: Average:
Temperature: 37.3 °F 22.0 °F 30 °F
Dew Point: 30.5 °F 18.7 °F 24.2 °F
Humidity: 89% 62% 79%
Wind Speed: 3.0mph 0.0mph 0.9mph
Wind Gust: 6.0mph - -
Wind- - SSE
Pressure: 30.07 in 29.79 in -
Precipitation: 0.07 in    
Historical Graphs
 
 
Tabular Data for February 11, 2017
Time Temperature Dew Point Pressure Wind Wind Speed Wind Gust Humidity Rainfall Rate (Hourly) solar
00:02 22.0 °F 18.7 °F 29.90 in ENE 1.0 mph 2.0 mph 87% 0.00 in 0 W/m2
00:08 22.1 °F 18.8 °F 29.90 in ENE 1.0 mph 2.0 mph 87% 0.00 in 0 W/m2
00:14 22.3 °F 18.7 °F 29.90 in ENE 1.0 mph 2.0 mph 86% 0.00 in 0 W/m2
00:20 22.6 °F 19.0 °F 29.90 in SE 1.0 mph 1.0 mph 86% 0.00 in 0 W/m2
00:26 22.7 °F 19.1 °F 29.90 in Calm   1.0 mph 86% 0.00 in 0 W/m2
00:32 22.9 °F 19.1 °F 29.89 in Calm   1.0 mph 85% 0.00 in 0 W/m2
00:38 23.1 °F 19.5 °F 29.88 in SE 2.0 mph 2.0 mph 86% 0.00 in 0 W/m2
00:44 23.6 °F 19.8 °F 29.88 in SSE 2.0 mph 5.0 mph 85% 0.00 in 0 W/m2
00:50 24.3 °F 19.9 °F 29.87 in SE 2.0 mph 2.0 mph 83% 0.00 in 0 W/m2
00:56 24.1 °F 19.7 °F 29.86 in SE 2.0 mph 2.0 mph 83% 0.00 in 0 W/m2
01:02 23.9 °F 19.8 °F 29.86 in ESE 1.0 mph 2.0 mph 84% 0.00 in 0 W/m2
01:08 23.9 °F 19.8 °F 29.85 in ENE 1.0 mph 2.0 mph 84% 0.00 in 0 W/m2
01:14 23.8 °F 19.7 °F 29.85 in Calm   2.0 mph 84% 0.00 in 0 W/m2
01:20 24.1 °F 20.0 °F 29.85 in ENE 1.0 mph 1.0 mph 84% 0.00 in 0 W/m2
01:26 24.4 °F 20.0 °F 29.84 in ENE 1.0 mph 1.0 mph 83% 0.00 in 0 W/m2
01:32 24.2 °F 19.8 °F 29.84 in Calm   1.0 mph 83% 0.00 in 0 W/m2
01:38 24.4 °F 20.0 °F 29.83 in Calm   1.0 mph 83% 0.00 in 0 W/m2
01:44 24.6 °F 20.2 °F 29.83 in ENE 1.0 mph 2.0 mph 83% 0.00 in 0 W/m2
01:46 24.5 °F 20.1 °F 29.83 in ENE 1.0 mph 2.0 mph 83% 0.00 in 0 W/m2
01:52 24.4 °F 20.3 °F 29.83 in ENE 1.0 mph 1.0 mph 84% 0.00 in 0 W/m2
01:58 25.4 °F 20.1 °F 29.83 in SE 2.0 mph 6.0 mph 80% 0.00 in 0 W/m2
02:04 25.5 °F 20.2 °F 29.83 in SE 2.0 mph 2.0 mph 80% 0.00 in 0 W/m2
02:10 25.4 °F 20.1 °F 29.83 in SE 1.0 mph 1.0 mph 80% 0.00 in 0 W/m2
02:16 25.1 °F 20.1 °F 29.83 in East 1.0 mph 3.0 mph 81% 0.00 in 0 W/m2
02:22 25.2 °F 20.2 °F 29.83 in East 2.0 mph 2.0 mph 81% 0.00 in 0 W/m2
02:28 25.4 °F 20.1 °F 29.83 in East 1.0 mph 2.0 mph 80% 0.00 in 0 W/m2
02:34 25.3 °F 20.0 °F 29.82 in East 1.0 mph 1.0 mph 80% 0.00 in 0 W/m2
02:40 25.1 °F 20.1 °F 29.82 in East 1.0 mph 1.0 mph 81% 0.00 in 0 W/m2
02:46 25.1 °F 20.1 °F 29.82 in ESE 1.0 mph 3.0 mph 81% 0.00 in 0 W/m2
02:52 25.1 °F 20.1 °F 29.81 in ENE 2.0 mph 3.0 mph 81% 0.00 in 0 W/m2
02:58 25.2 °F 20.2 °F 29.81 in East 2.0 mph 3.0 mph 81% 0.00 in 0 W/m2
03:04 25.3 °F 20.0 °F 29.81 in ENE 2.0 mph 5.0 mph 80% 0.00 in 0 W/m2
03:10 25.2 °F 20.2 °F 29.81 in ENE 2.0 mph 2.0 mph 81% 0.00 in 0 W/m2
03:16 25.3 °F 20.0 °F 29.81 in East 1.0 mph 2.0 mph 80% 0.00 in 0 W/m2
03:22 25.4 °F 20.1 °F 29.81 in ENE 2.0 mph 3.0 mph 80% 0.00 in 0 W/m2
03:28 25.4 °F 20.1 °F 29.81 in ENE 1.0 mph 3.0 mph 80% 0.00 in 0 W/m2
03:34 25.5 °F 20.2 °F 29.81 in Calm   1.0 mph 80% 0.00 in 0 W/m2
03:40 25.4 °F 20.1 °F 29.81 in East 1.0 mph 2.0 mph 80% 0.00 in 0 W/m2
03:46 25.5 °F 20.2 °F 29.81 in East 1.0 mph 2.0 mph 80% 0.00 in 0 W/m2
03:52 25.4 °F 20.1 °F 29.80 in Calm   1.0 mph 80% 0.00 in 0 W/m2
03:58 25.4 °F 20.1 °F 29.80 in SE 1.0 mph 2.0 mph 80% 0.00 in 0 W/m2
04:04 25.5 °F 19.9 °F 29.80 in East 1.0 mph 2.0 mph 79% 0.00 in 0 W/m2
04:10 25.7 °F 19.8 °F 29.80 in SE 1.0 mph 1.0 mph 78% 0.00 in 0 W/m2
04:16 25.9 °F 19.7 °F 29.79 in ESE 1.0 mph 4.0 mph 77% 0.00 in 0 W/m2
04:22 26.2 °F 20.0 °F 29.80 in ESE 2.0 mph 2.0 mph 77% 0.00 in 0 W/m2
04:28 26.4 °F 19.9 °F 29.80 in SE 1.0 mph 4.0 mph 76% 0.00 in 0 W/m2
04:34 26.5 °F 20.0 °F 29.80 in SE 1.0 mph 2.0 mph 76% 0.00 in 0 W/m2
04:40 26.5 °F 20.0 °F 29.80 in SE 1.0 mph 1.0 mph 76% 0.00 in 0 W/m2
04:46 26.4 °F 20.2 °F 29.80 in Calm   1.0 mph 77% 0.00 in 0 W/m2
04:52 26.3 °F 20.1 °F 29.80 in Calm   1.0 mph 77% 0.00 in 0 W/m2
04:58 26.2 °F 20.3 °F 29.80 in ENE 1.0 mph 2.0 mph 78% 0.00 in 0 W/m2
05:04 26.2 °F 20.3 °F 29.80 in ENE 1.0 mph 2.0 mph 78% 0.00 in 0 W/m2
05:10 26.2 °F 20.0 °F 29.80 in ENE 1.0 mph 1.0 mph 77% 0.00 in 0 W/m2
05:16 26.0 °F 20.7 °F 29.80 in ENE 1.0 mph 2.0 mph 80% 0.00 in 0 W/m2
05:22 25.8 °F 20.8 °F 29.80 in ENE 1.0 mph 2.0 mph 81% 0.00 in 0 W/m2
05:28 25.9 °F 20.3 °F 29.79 in ENE 1.0 mph 3.0 mph 79% 0.00 in 0 W/m2
05:34 26.0 °F 20.1 °F 29.79 in ENE 2.0 mph 3.0 mph 78% 0.00 in 0 W/m2
05:40 26.1 °F 20.2 °F 29.80 in ENE 2.0 mph 2.0 mph 78% 0.00 in 0 W/m2
05:46 26.1 °F 20.5 °F 29.80 in ENE 2.0 mph 2.0 mph 79% 0.00 in 0 W/m2
05:52 26.0 °F 20.1 °F 29.80 in ENE 2.0 mph 2.0 mph 78% 0.00 in 0 W/m2
05:58 25.9 °F 20.3 °F 29.79 in ENE 1.0 mph 2.0 mph 79% 0.00 in 0 W/m2
06:04 25.8 °F 20.2 °F 29.79 in ENE 1.0 mph 2.0 mph 79% 0.00 in 0 W/m2
06:10 25.9 °F 20.3 °F 29.80 in ENE 2.0 mph 4.0 mph 79% 0.00 in 0 W/m2
06:16 25.9 °F 20.3 °F 29.80 in ENE 1.0 mph 4.0 mph 79% 0.00 in 0 W/m2
06:22 25.8 °F 20.5 °F 29.80 in NE 1.0 mph 3.0 mph 80% 0.00 in 0 W/m2
06:28 25.6 °F 20.3 °F 29.80 in East 2.0 mph 5.0 mph 80% 0.00 in 0 W/m2
06:34 25.5 °F 20.5 °F 29.80 in ENE 2.0 mph 2.0 mph 81% 0.00 in 0 W/m2
06:40 25.3 °F 20.3 °F 29.80 in ENE 1.0 mph 3.0 mph 81% 0.00 in 0 W/m2
06:46 25.2 °F 19.9 °F 29.80 in ENE 2.0 mph 3.0 mph 80% 0.00 in 0 W/m2
06:52 25.2 °F 19.9 °F 29.80 in NE 3.0 mph 3.0 mph 80% 0.00 in 0 W/m2
06:58 25.1 °F 20.1 °F 29.81 in NE 2.0 mph 3.0 mph 81% 0.00 in 0 W/m2
07:04 25.1 °F 20.1 °F 29.81 in ENE 2.0 mph 4.0 mph 81% 0.00 in 0 W/m2
07:10 25.0 °F 20.0 °F 29.82 in ENE 2.0 mph 2.0 mph 81% 0.00 in 0 W/m2
07:16 25.0 °F 20.0 °F 29.82 in ENE 1.0 mph 3.0 mph 81% 0.00 in 0 W/m2
07:22 25.0 °F 20.0 °F 29.82 in ENE 1.0 mph 1.0 mph 81% 0.00 in 0 W/m2
07:28 25.0 °F 20.0 °F 29.82 in East 1.0 mph 2.0 mph 81% 0.00 in 5 W/m2
07:34 25.0 °F 20.0 °F 29.82 in East 1.0 mph 1.0 mph 81% 0.00 in 7 W/m2
07:40 25.1 °F 20.1 °F 29.82 in ENE 1.0 mph 1.0 mph 81% 0.00 in 18 W/m2
07:46 25.3 °F 20.3 °F 29.82 in ENE 1.0 mph 2.0 mph 81% 0.00 in 23 W/m2
07:52 25.4 °F 20.4 °F 29.82 in ENE 1.0 mph 2.0 mph 81% 0.00 in 30 W/m2
07:58 25.5 °F 20.5 °F 29.82 in East 1.0 mph 2.0 mph 81% 0.00 in 40 W/m2
08:04 25.6 °F 20.3 °F 29.82 in ENE 1.0 mph 1.0 mph 80% 0.00 in 44 W/m2
08:10 25.8 °F 20.5 °F 29.82 in ENE 2.0 mph 2.0 mph 80% 0.00 in 51 W/m2
08:16 26.0 °F 20.7 °F 29.82 in ENE 2.0 mph 2.0 mph 80% 0.00 in 65 W/m2
08:22 26.1 °F 20.5 °F 29.82 in ENE 1.0 mph 3.0 mph 79% 0.00 in 39 W/m2
08:28 26.2 °F 20.6 °F 29.83 in ENE 1.0 mph 3.0 mph 79% 0.00 in 46 W/m2
08:34 26.4 °F 20.8 °F 29.83 in ENE 1.0 mph 2.0 mph 79% 0.00 in 72 W/m2
08:40 26.6 °F 20.7 °F 29.83 in ENE 1.0 mph 1.0 mph 78% 0.00 in 72 W/m2
08:46 26.9 °F 21.0 °F 29.83 in Calm   1.0 mph 78% 0.00 in 63 W/m2
08:52 26.9 °F 20.7 °F 29.84 in ENE 1.0 mph 2.0 mph 77% 0.00 in 83 W/m2
08:58 27.0 °F 20.7 °F 29.83 in ENE 1.0 mph 2.0 mph 77% 0.00 in 88 W/m2
09:04 27.1 °F 20.8 °F 29.83 in East 2.0 mph 2.0 mph 77% 0.00 in 93 W/m2
09:10 27.2 °F 20.6 °F 29.84 in East 2.0 mph 2.0 mph 76% 0.00 in 91 W/m2
09:16 27.4 °F 20.8 °F 29.84 in East 1.0 mph 3.0 mph 76% 0.00 in 100 W/m2
09:22 27.6 °F 21.0 °F 29.84 in East 1.0 mph 2.0 mph 76% 0.00 in 102 W/m2
09:28 27.7 °F 20.8 °F 29.84 in East 1.0 mph 3.0 mph 75% 0.00 in 111 W/m2
09:34 28.0 °F 21.1 °F 29.84 in East 1.0 mph 2.0 mph 75% 0.00 in 130 W/m2
09:40 28.2 °F 21.3 °F 29.84 in East 1.0 mph 1.0 mph 75% 0.00 in 167 W/m2
09:46 28.6 °F 21.4 °F 29.85 in East 1.0 mph 1.0 mph 74% 0.00 in 130 W/m2
09:52 28.8 °F 21.6 °F 29.85 in East 1.0 mph 2.0 mph 74% 0.00 in 114 W/m2
09:58 28.9 °F 21.7 °F 29.85 in East 1.0 mph 2.0 mph 74% 0.00 in 134 W/m2
10:04 29.1 °F 21.5 °F 29.85 in ENE 1.0 mph 3.0 mph 73% 0.00 in 146 W/m2
10:10 29.0 °F 21.4 °F 29.85 in ENE 1.0 mph 1.0 mph 73% 0.00 in 156 W/m2
10:16 29.1 °F 21.5 °F 29.85 in NE 2.0 mph 2.0 mph 73% 0.00 in 153 W/m2
10:22 29.3 °F 21.7 °F 29.85 in NE 1.0 mph 2.0 mph 73% 0.00 in 155 W/m2
10:28 29.5 °F 21.9 °F 29.85 in ENE 1.0 mph 2.0 mph 73% 0.00 in 176 W/m2
10:34 29.9 °F 22.3 °F 29.85 in Calm   3.0 mph 73% 0.00 in 174 W/m2
10:40 29.9 °F 22.3 °F 29.86 in ESE 1.0 mph 1.0 mph 73% 0.00 in 162 W/m2
10:46 30.2 °F 22.6 °F 29.85 in ESE 1.0 mph 1.0 mph 73% 0.00 in 171 W/m2
10:52 30.7 °F 22.7 °F 29.85 in Calm     72% 0.00 in 171 W/m2
10:58 30.8 °F 22.5 °F 29.86 in Calm   2.0 mph 71% 0.00 in 163 W/m2
11:04 30.9 °F 22.6 °F 29.86 in ESE 1.0 mph 2.0 mph 71% 0.00 in 171 W/m2
11:10 31.2 °F 22.9 °F 29.86 in ESE 1.0 mph 1.0 mph 71% 0.00 in 179 W/m2
11:16 31.3 °F 22.6 °F 29.86 in NE 1.0 mph 2.0 mph 70% 0.00 in 185 W/m2
11:22 31.5 °F 23.2 °F 29.86 in NE 1.0 mph 1.0 mph 71% 0.00 in 197 W/m2
11:28 31.9 °F 22.9 °F 29.86 in Calm   1.0 mph 69% 0.00 in 207 W/m2
11:34 32.4 °F 23.0 °F 29.87 in NE 1.0 mph 2.0 mph 68% 0.00 in 158 W/m2
11:40 32.6 °F 23.2 °F 29.87 in Calm   2.0 mph 68% 0.00 in 188 W/m2
11:46 32.4 °F 23.0 °F 29.87 in NE 1.0 mph 2.0 mph 68% 0.00 in 188 W/m2
11:52 32.5 °F 23.1 °F 29.87 in NE 1.0 mph 2.0 mph 68% 0.00 in 179 W/m2
11:58 32.7 °F 23.6 °F 29.88 in North 1.0 mph 2.0 mph 69% 0.00 in 185 W/m2
12:04 32.8 °F 23.4 °F 29.87 in NNE 1.0 mph 3.0 mph 68% 0.00 in 186 W/m2
12:12 32.8 °F 23.4 °F 29.88 in NNE 2.0 mph 2.0 mph 68% 0.00 in 148 W/m2
12:18 32.8 °F 23.4 °F 29.88 in NNE 2.0 mph 2.0 mph 68% 0.00 in 141 W/m2
12:24 33.0 °F 23.6 °F 29.89 in NNE 2.0 mph 2.0 mph 68% 0.00 in 141 W/m2
12:30 33.0 °F 23.2 °F 29.89 in NNE 1.0 mph 1.0 mph 67% 0.00 in 130 W/m2
12:36 33.2 °F 23.4 °F 29.89 in Calm   1.0 mph 67% 0.00 in 135 W/m2
12:42 33.2 °F 23.4 °F 29.89 in Calm     67% 0.00 in 141 W/m2
12:48 33.4 °F 23.6 °F 29.89 in Calm     67% 0.00 in 172 W/m2
12:54 33.7 °F 23.9 °F 29.88 in Calm     67% 0.00 in 243 W/m2
13:00 34.3 °F 24.1 °F 29.89 in Calm     66% 0.00 in 193 W/m2
13:06 34.8 °F 24.6 °F 29.89 in Calm     66% 0.00 in 135 W/m2
13:12 35.0 °F 24.8 °F 29.89 in Calm     66% 0.00 in 137 W/m2
13:18 35.4 °F 24.8 °F 29.89 in Calm     65% 0.00 in 148 W/m2
13:24 35.5 °F 24.5 °F 29.89 in Calm     64% 0.00 in 172 W/m2
13:30 35.8 °F 24.4 °F 29.89 in Calm     63% 0.00 in 179 W/m2
13:36 36.3 °F 24.9 °F 29.89 in Calm     63% 0.00 in 162 W/m2
13:42 36.5 °F 24.7 °F 29.89 in Calm     62% 0.00 in 167 W/m2
13:48 36.4 °F 24.6 °F 29.89 in Calm     62% 0.00 in 186 W/m2
13:54 36.4 °F 25.0 °F 29.89 in Calm   2.0 mph 63% 0.00 in 163 W/m2
14:00 36.2 °F 24.8 °F 29.90 in Calm     63% 0.00 in 134 W/m2
14:06 36.3 °F 25.3 °F 29.90 in Calm     64% 0.00 in 128 W/m2
14:12 36.4 °F 25.7 °F 29.91 in Calm     65% 0.00 in 116 W/m2
14:18 36.7 °F 25.7 °F 29.91 in Calm     64% 0.00 in 118 W/m2
14:24 36.9 °F 25.9 °F 29.91 in Calm   2.0 mph 64% 0.00 in 127 W/m2
14:30 36.9 °F 26.2 °F 29.91 in Calm     65% 0.00 in 120 W/m2
14:36 37.0 °F 26.7 °F 29.91 in Calm     66% 0.00 in 104 W/m2
14:42 37.1 °F 26.8 °F 29.91 in Calm     66% 0.00 in 121 W/m2
14:48 37.2 °F 27.2 °F 29.92 in Calm     67% 0.00 in 109 W/m2
14:54 37.3 °F 27.7 °F 29.92 in Calm     68% 0.00 in 95 W/m2
15:00 37.3 °F 28.4 °F 29.92 in Calm   1.0 mph 70% 0.00 in 70 W/m2
15:06 37.2 °F 29.0 °F 29.93 in NW 1.0 mph 1.0 mph 72% 0.00 in 58 W/m2
15:12 37.1 °F 28.9 °F 29.93 in NW 1.0 mph 1.0 mph 72% 0.00 in 67 W/m2
15:18 37.0 °F 29.1 °F 29.94 in Calm   2.0 mph 73% 0.00 in 60 W/m2
15:24 36.8 °F 29.0 °F 29.94 in WNW 1.0 mph 3.0 mph 73% 0.00 in 54 W/m2
15:30 36.7 °F 28.9 °F 29.93 in WNW 2.0 mph 2.0 mph 73% 0.00 in 54 W/m2
15:36 36.7 °F 29.2 °F 29.93 in WNW 1.0 mph 2.0 mph 74% 0.00 in 51 W/m2
15:42 36.6 °F 29.1 °F 29.93 in Calm   2.0 mph 74% 0.00 in 53 W/m2
15:48 36.6 °F 29.1 °F 29.94 in WNW 1.0 mph 3.0 mph 74% 0.00 in 56 W/m2
15:54 36.6 °F 29.1 °F 29.95 in WNW 1.0 mph 3.0 mph 74% 0.00 in 44 W/m2
16:00 36.6 °F 29.1 °F 29.94 in WNW 1.0 mph 1.0 mph 74% 0.00 in 47 W/m2
16:06 36.5 °F 29.0 °F 29.95 in WNW 1.0 mph 3.0 mph 74% 0.00 in 35 W/m2
16:12 36.4 °F 29.2 °F 29.95 in WNW 1.0 mph 2.0 mph 75% 0.00 in 33 W/m2
16:18 36.4 °F 29.2 °F 29.96 in WNW 1.0 mph 2.0 mph 75% 0.00 in 37 W/m2
16:24 36.4 °F 29.2 °F 29.96 in WNW 1.0 mph 1.0 mph 75% 0.00 in 30 W/m2
16:30 36.3 °F 29.1 °F 29.97 in Calm     75% 0.00 in 25 W/m2
16:36 36.2 °F 29.7 °F 29.97 in WNW 2.0 mph 4.0 mph 77% 0.00 in 21 W/m2
16:38 36.1 °F 29.6 °F 29.97 in WNW 2.0 mph 4.0 mph 77% 0.00 in 19 W/m2
16:44 35.8 °F 29.9 °F 29.97 in WNW 3.0 mph 4.0 mph 79% 0.00 in 14 W/m2
16:50 35.5 °F 30.2 °F 29.97 in NW 2.0 mph 2.0 mph 81% 0.00 in 14 W/m2
16:56 35.2 °F 30.3 °F 29.98 in NW 2.0 mph 2.0 mph 82% 0.00 in 12 W/m2
17:02 35.1 °F 30.5 °F 29.98 in NW 1.0 mph 1.0 mph 83% 0.00 in 12 W/m2
17:08 35.0 °F 30.4 °F 29.98 in NW 1.0 mph 3.0 mph 83% 0.00 in 7 W/m2
17:14 34.9 °F 30.3 °F 29.98 in NW 1.0 mph 1.0 mph 83% 0.00 in 0 W/m2
17:22 34.8 °F 30.2 °F 29.98 in NW 1.0 mph 2.0 mph 83% 0.00 in 0 W/m2
17:28 34.7 °F 30.1 °F 29.99 in WNW 2.0 mph 4.0 mph 83% 0.00 in 0 W/m2
17:34 34.6 °F 30.0 °F 29.99 in NW 1.0 mph 2.0 mph 83% 0.00 in 0 W/m2
17:40 34.5 °F 29.9 °F 30.00 in NW 1.0 mph 2.0 mph 83% 0.00 in 0 W/m2
17:46 34.3 °F 30.0 °F 29.99 in NW 1.0 mph 2.0 mph 84% 0.00 in 0 W/m2
17:52 34.2 °F 29.9 °F 30.00 in NW 1.0 mph 1.0 mph 84% 0.00 in 0 W/m2
17:58 34.1 °F 30.1 °F 30.00 in NW 1.0 mph 2.0 mph 85% 0.00 in 0 W/m2
18:04 34.0 °F 30.0 °F 30.00 in NW 1.0 mph 2.0 mph 85% 0.00 in 0 W/m2
18:10 34.0 °F 30.0 °F 30.00 in Calm     85% 0.00 in 0 W/m2
18:16 33.9 °F 29.9 °F 30.01 in Calm   1.0 mph 85% 0.00 in 0 W/m2
18:22 33.9 °F 29.9 °F 30.01 in Calm   1.0 mph 85% 0.00 in 0 W/m2
18:28 33.8 °F 30.1 °F 30.01 in Calm   1.0 mph 86% 0.00 in 0 W/m2
18:34 33.7 °F 30.0 °F 30.01 in Calm   1.0 mph 86% 0.00 in 0 W/m2
18:40 33.7 °F 29.7 °F 30.01 in Calm     85% 0.00 in 0 W/m2
18:46 33.6 °F 29.9 °F 30.02 in Calm     86% 0.00 in 0 W/m2
18:52 33.5 °F 29.8 °F 30.02 in Calm     86% 0.00 in 0 W/m2
18:58 33.4 °F 29.7 °F 30.03 in Calm     86% 0.00 in 0 W/m2
19:04 33.4 °F 29.7 °F 30.03 in Calm   1.0 mph 86% 0.00 in 0 W/m2
19:10 33.4 °F 29.7 °F 30.03 in Calm     86% 0.00 in 0 W/m2
19:16 33.3 °F 29.6 °F 30.03 in Calm     86% 0.00 in 0 W/m2
19:22 33.3 °F 29.8 °F 30.04 in Calm     87% 0.00 in 0 W/m2
19:28 33.2 °F 29.8 °F 30.04 in Calm   1.0 mph 87% 0.00 in 0 W/m2
19:34 33.2 °F 29.8 °F 30.04 in Calm     87% 0.00 in 0 W/m2
19:40 33.2 °F 29.8 °F 30.04 in Calm     87% 0.00 in 0 W/m2
19:46 33.1 °F 29.7 °F 30.04 in Calm     87% 0.00 in 0 W/m2
19:52 33.1 °F 29.7 °F 30.04 in Calm     87% 0.00 in 0 W/m2
19:58 33.0 °F 29.6 °F 30.05 in Calm     87% 0.00 in 0 W/m2
20:04 33.0 °F 29.8 °F 30.05 in Calm     88% 0.00 in 0 W/m2
20:10 33.0 °F 29.8 °F 30.06 in Calm     88% 0.00 in 0 W/m2
20:16 33.0 °F 29.8 °F 30.06 in Calm     88% 0.00 in 0 W/m2
20:22 32.9 °F 29.7 °F 30.05 in Calm   2.0 mph 88% 0.00 in 0 W/m2
20:28 32.9 °F 29.7 °F 30.05 in Calm   2.0 mph 88% 0.00 in 0 W/m2
20:34 32.9 °F 29.7 °F 30.05 in Calm   1.0 mph 88% 0.00 in 0 W/m2
20:40 32.9 °F 29.5 °F 30.05 in Calm     87% 0.00 in 0 W/m2
20:46 32.8 °F 29.4 °F 30.06 in NW 1.0 mph 2.0 mph 87% 0.00 in 0 W/m2
20:52 32.7 °F 29.3 °F 30.06 in NNW 2.0 mph 3.0 mph 87% 0.00 in 0 W/m2
20:58 32.5 °F 29.1 °F 30.06 in North 3.0 mph 4.0 mph 87% 0.00 in 0 W/m2
21:04 32.3 °F 28.6 °F 30.06 in North 2.0 mph 3.0 mph 86% 0.00 in 0 W/m2
21:10 32.2 °F 28.8 °F 30.06 in North 1.0 mph 2.0 mph 87% 0.00 in 0 W/m2
21:16 32.1 °F 28.4 °F 30.06 in North 1.0 mph 3.0 mph 86% 0.00 in 0 W/m2
21:22 31.9 °F 28.2 °F 30.06 in North 2.0 mph 2.0 mph 86% 0.00 in 0 W/m2
21:28 31.8 °F 28.1 °F 30.06 in North 1.0 mph 2.0 mph 86% 0.00 in 0 W/m2
21:34 31.7 °F 28.0 °F 30.06 in North 1.0 mph 1.0 mph 86% 0.00 in 0 W/m2
21:40 31.6 °F 27.9 °F 30.07 in North 1.0 mph 1.0 mph 86% 0.00 in 0 W/m2
21:46 31.5 °F 28.1 °F 30.07 in North 1.0 mph 1.0 mph 87% 0.00 in 0 W/m2
21:52 31.4 °F 28.0 °F 30.07 in Calm   1.0 mph 87% 0.00 in 0 W/m2
21:58 31.3 °F 27.9 °F 30.07 in NNW 1.0 mph 4.0 mph 87% 0.00 in 0 W/m2
22:04 31.1 °F 27.7 °F 30.07 in NNW 2.0 mph 2.0 mph 87% 0.00 in 0 W/m2
22:12 30.9 °F 27.5 °F 30.07 in NNW 1.0 mph 3.0 mph 87% 0.00 in 0 W/m2
22:18 30.8 °F 27.4 °F 30.06 in NNW 1.0 mph 3.0 mph 87% 0.00 in 0 W/m2
22:24 30.5 °F 27.1 °F 30.06 in NNW 2.0 mph 3.0 mph 87% 0.00 in 0 W/m2
22:30 30.4 °F 27.0 °F 30.07 in NNW 1.0 mph 1.0 mph 87% 0.00 in 0 W/m2
22:36 30.2 °F 27.1 °F 30.07 in NNW 1.0 mph 3.0 mph 88% 0.00 in 0 W/m2
22:42 29.9 °F 26.8 °F 30.07 in NNW 1.0 mph 1.0 mph 88% 0.00 in 0 W/m2
22:48 29.7 °F 26.6 °F 30.07 in NNW 1.0 mph 2.0 mph 88% 0.00 in 0 W/m2
22:54 29.6 °F 26.5 °F 30.07 in NNW 1.0 mph 2.0 mph 88% 0.00 in 0 W/m2
23:00 29.5 °F 26.4 °F 30.06 in Calm     88% 0.00 in 0 W/m2
23:06 29.4 °F 26.3 °F 30.06 in Calm   2.0 mph 88% 0.00 in 0 W/m2
23:12 29.3 °F 26.5 °F 30.07 in NNW 1.0 mph 1.0 mph 89% 0.00 in 0 W/m2
23:18 29.3 °F 26.2 °F 30.07 in Calm   1.0 mph 88% 0.00 in 0 W/m2
23:24 29.2 °F 26.1 °F 30.07 in Calm     88% 0.00 in 0 W/m2
23:30 29.2 °F 26.4 °F 30.07 in Calm     89% 0.00 in 0 W/m2
23:36 29.2 °F 26.4 °F 30.07 in Calm     89% 0.00 in 0 W/m2
23:42 29.2 °F 26.4 °F 30.07 in Calm     89% 0.00 in 0 W/m2
23:48 29.2 °F 26.4 °F 30.07 in Calm   1.0 mph 89% 0.00 in 0 W/m2
23:54 29.2 °F 26.4 °F 30.06 in Calm     89% 0.00 in 0 W/m2
Country Meadow, Clay, NY, USA
Compliments of Weather Underground - 2 mb